Карточка аэропорта UACK

Внимание!
Информация на этой странице в стадии наполнения.
Если вы не увидели какой-то информации, или заметили неточность - пожалуйста сообщите нам!
Спасибо!
Команда RU-STAFF
Название аэропортаКокшетау
Название аэропорта (англ.)Kokshetau
Превышение889 ft. (271 m.)
Координаты53°19.8', 69°35.802'
Высота перехода10000ft
Эшелон переходаFL120, QNH<733:FL130
Коды ответчика7264-7267
Зона ОрВДАстана РПИ (UACN)
Данные METARUACK 211230Z 36005MPS 9999 SCT045 23/17 Q1006 NOSIG RMK QFE731/0974
Проноз погоды (TAF)UACK 211102Z 2112/2121 34006MPS 9999 SCT040 BKN100 TEMPO 2112/2118 30007G12MPS 3100 -TSRA BKN040CB
NOTAMshow/hide NOTAM
AWOS   TABLE

Информация о ВПП

ВПП Длина ВПП (м.) Покрытие Курс ВПП Частота ILS
202850Асфальтобетон201109.5
022850Асфальтобетон21110.3

Диспетчерские позиции




Спутниковое изображение